Time;durP1;ratioP1;P1;durP2;ratioP2;P2;SDS_P1;SDS_P2;PMS_P1;PMS_P2;Temp;Humidity;BMP_temperature;BMP_pressure;BME280_temperature;BME280_humidity;BME280_pressure;Samples;Min_cycle;Max_cycle;Signal;HPM_P1;HPM_P2
2023/01/08 00:01:12;;;;;;;70.50;34.97;;;;;;;1.48;100.00;100233.69;5076416;28;20033;-76
2023/01/08 00:03:38;;;;;;;65.65;31.55;;;;;;;1.46;100.00;100239.75;5076557;28;20028;-77
2023/01/08 00:06:07;;;;;;;56.58;31.40;;;;;;;1.45;100.00;100226.13;5078084;28;20445;-76
2023/01/08 00:08:33;;;;;;;63.33;32.35;;;;;;;1.42;100.00;100224.97;5076946;28;20093;-77
2023/01/08 00:10:59;;;;;;;58.30;29.20;;;;;;;1.42;100.00;100229.78;5075382;28;20028;-77
2023/01/08 00:13:25;;;;;;;63.25;29.85;;;;;;;1.45;100.00;100220.50;5075334;28;20089;-78
2023/01/08 00:15:52;;;;;;;59.67;30.52;;;;;;;1.42;100.00;100215.72;5058113;28;20127;-76
2023/01/08 00:18:20;;;;;;;61.28;30.02;;;;;;;1.41;100.00;100223.38;5075754;28;20028;-76
2023/01/08 00:20:47;;;;;;;58.08;28.10;;;;;;;1.42;100.00;100227.78;5075763;28;20035;-77
2023/01/08 00:23:15;;;;;;;57.72;27.67;;;;;;;1.44;100.00;100218.91;5075784;28;20035;-77
2023/01/08 00:25:41;;;;;;;54.72;27.42;;;;;;;1.43;100.00;100222.94;5057745;28;20109;-76
2023/01/08 00:28:08;;;;;;;58.70;28.25;;;;;;;1.42;100.00;100210.88;5058032;28;20044;-76
2023/01/08 00:30:34;;;;;;;51.55;26.25;;;;;;;1.44;100.00;100216.09;5057713;28;20178;-78
2023/01/08 00:33:01;;;;;;;50.00;25.20;;;;;;;1.41;100.00;100211.31;5075447;28;20025;-77
2023/01/08 00:35:26;;;;;;;50.50;26.55;;;;;;;1.42;100.00;100207.28;5075269;28;20041;-78
2023/01/08 00:37:52;;;;;;;49.63;25.73;;;;;;;1.41;100.00;100200.03;5075513;28;20031;-77
2023/01/08 00:40:20;;;;;;;52.70;26.52;;;;;;;1.37;100.00;100185.25;5075798;28;20021;-76
2023/01/08 00:42:46;;;;;;;54.58;27.30;;;;;;;1.37;100.00;100197.31;5075170;28;20032;-76
2023/01/08 00:45:12;;;;;;;55.22;26.83;;;;;;;1.38;100.00;100186.84;5075139;28;20036;-76
2023/01/08 00:47:39;;;;;;;50.13;25.45;;;;;;;1.36;100.00;100180.84;5075328;28;20031;-77
2023/01/08 00:50:06;;;;;;;51.33;25.55;;;;;;;1.36;100.00;100186.47;5074084;28;20127;-78
2023/01/08 00:52:34;;;;;;;51.17;25.33;;;;;;;1.32;100.00;100185.75;5056744;28;20068;-76
2023/01/08 00:55:02;;;;;;;47.25;25.30;;;;;;;1.34;100.00;100188.94;5074991;28;20025;-77
2023/01/08 00:57:33;;;;;;;56.17;27.90;;;;;;;1.32;100.00;100189.38;5075081;28;20091;-77
2023/01/08 00:59:59;;;;;;;59.58;29.85;;;;;;;1.31;100.00;100195.41;5075784;28;20088;-77
2023/01/08 01:02:40;;;;;;;59.00;30.02;;;;;;;1.28;100.00;100196.31;5075519;28;20546;-77
2023/01/08 01:05:08;;;;;;;57.90;29.55;;;;;;;1.24;100.00;100196.38;5074955;28;20073;-76
2023/01/08 01:07:36;;;;;;;57.58;30.40;;;;;;;1.23;100.00;100202.44;5075063;28;20027;-77
2023/01/08 01:10:01;;;;;;;63.83;32.58;;;;;;;1.20;100.00;100209.72;5074824;28;20040;-77
2023/01/08 01:12:29;;;;;;;62.65;31.00;;;;;;;1.17;100.00;100201.34;5056218;28;20024;-77
2023/01/08 01:14:59;;;;;;;72.53;32.92;;;;;;;1.14;100.00;100196.56;5074664;28;20082;-78
2023/01/08 01:17:25;;;;;;;71.00;33.63;;;;;;;1.14;100.00;100197.38;5074678;28;20048;-77
2023/01/08 01:19:51;;;;;;;74.55;33.50;;;;;;;1.12;100.00;100199.00;5074562;28;20388;-78
2023/01/08 01:22:31;;;;;;;65.80;31.45;;;;;;;1.08;100.00;100203.91;5073508;28;20036;-77
2023/01/08 01:24:57;;;;;;;67.72;32.72;;;;;;;1.06;100.00;100192.31;5073085;28;20045;-76
2023/01/08 01:27:27;;;;;;;65.55;33.17;;;;;;;1.04;100.00;100187.13;5074766;28;20040;-76
2023/01/08 01:29:54;;;;;;;69.25;35.55;;;;;;;1.05;100.00;100183.09;5073295;28;20066;-77
2023/01/08 01:32:20;;;;;;;74.25;36.70;;;;;;;1.01;100.00;100174.69;5071349;28;20040;-77
2023/01/08 01:34:47;;;;;;;68.60;34.17;;;;;;;1.02;100.00;100173.47;5074915;28;20036;-77
2023/01/08 01:37:14;;;;;;;73.00;36.38;;;;;;;0.99;100.00;100182.78;5074044;28;20366;-77
2023/01/08 01:39:55;;;;;;;70.28;34.47;;;;;;;1.00;100.00;100178.75;5073298;28;20039;-77
2023/01/08 01:42:42;;;;;;;74.90;36.90;;;;;;;1.01;100.00;100171.88;5074284;28;20032;-77
2023/01/08 01:45:30;;;;;;;69.72;34.17;;;;;;;1.00;100.00;100175.13;5059089;28;20032;-76
2023/01/08 01:48:19;;;;;;;78.00;35.83;;;;;;;1.00;100.00;100177.97;5073381;28;20044;-78
2023/01/08 01:50:48;;;;;;;70.60;36.53;;;;;;;0.98;100.00;100175.56;5072984;28;20032;-77
2023/01/08 01:53:30;;;;;;;62.60;33.85;;;;;;;0.97;100.00;100170.34;5056335;28;20039;-77
2023/01/08 01:56:00;;;;;;;71.43;34.88;;;;;;;0.96;100.00;100168.78;5072971;28;20035;-77
2023/01/08 01:58:35;;;;;;;71.78;35.08;;;;;;;0.93;100.00;100159.19;5039773;28;20502;-77
2023/01/08 02:01:03;;;;;;;76.45;37.85;;;;;;;0.93;100.00;100159.19;5072625;28;20108;-78
2023/01/08 02:03:33;;;;;;;72.20;38.47;;;;;;;0.90;100.00;100178.94;5055978;28;20028;-77
2023/01/08 02:06:21;;;;;;;74.55;38.47;;;;;;;0.93;100.00;100170.44;5073891;28;20065;-78
2023/01/08 02:09:15;;;;;;;78.60;37.83;;;;;;;0.93;100.00;100161.19;5074058;28;20044;-76
2023/01/08 02:12:15;;;;;;;80.28;38.67;;;;;;;0.91;100.00;100163.66;5073384;28;20028;-77
2023/01/08 02:14:54;;;;;;;71.63;35.85;;;;;;;0.90;100.00;100170.50;5073709;28;20032;-76
2023/01/08 02:17:32;;;;;;;74.20;37.70;;;;;;;0.89;100.00;100155.66;5074648;28;20115;-75
2023/01/08 02:20:24;;;;;;;81.43;41.65;;;;;;;0.88;100.00;100161.69;5073875;28;20440;-76
2023/01/08 02:23:05;;;;;;;;;;;;;;;0.86;100.00;100156.50;5073788;28;20032;-76
2023/01/08 02:25:52;;;;;;;77.82;38.03;;;;;;;0.87;100.00;100160.09;5088856;28;19916;-76
2023/01/08 02:28:21;;;;;;;82.05;39.00;;;;;;;0.85;100.00;100156.94;5093985;28;20028;-74
2023/01/08 02:30:46;;;;;;;77.43;39.35;;;;;;;0.85;100.00;100145.69;5059013;28;20044;-77
2023/01/08 02:33:14;;;;;;;78.10;38.17;;;;;;;0.82;100.00;100138.91;5055791;28;20047;-76
2023/01/08 02:35:44;;;;;;;75.28;36.70;;;;;;;0.82;100.00;100132.47;5095522;28;20028;-77
2023/01/08 02:38:13;;;;;;;86.05;42.78;;;;;;;0.78;100.00;100132.56;5059560;28;20048;-76
2023/01/08 02:41:07;;;;;;;90.28;42.90;;;;;;;0.81;100.00;100133.72;5075759;28;20116;-76
2023/01/08 02:43:45;;;;;;;84.68;40.03;;;;;;;0.81;100.00;100133.72;5093368;28;20032;-77
2023/01/08 02:46:17;;;;;;;82.30;40.03;;;;;;;0.81;100.00;100128.09;5058937;28;20024;-75
2023/01/08 02:48:48;;;;;;;86.35;42.00;;;;;;;0.84;100.00;100119.59;5058658;28;20028;-76
2023/01/08 02:51:22;;;;;;;84.35;42.35;;;;;;;0.85;100.00;100121.19;5058484;28;20338;-76
2023/01/08 02:54:00;;;;;;;84.65;41.10;;;;;;;0.87;100.00;100134.78;5093334;28;20492;-78
2023/01/08 02:56:30;;;;;;;83.38;40.75;;;;;;;0.90;100.00;100151.63;5093690;28;20028;-74
2023/01/08 02:58:57;;;;;;;88.40;45.22;;;;;;;0.92;100.00;100148.34;5075606;28;20491;-73
2023/01/08 03:01:32;;;;;;;85.55;41.80;;;;;;;0.95;100.00;100141.88;5075378;28;20123;-76
2023/01/08 03:04:03;;;;;;;86.10;42.22;;;;;;;0.96;100.00;100138.63;5058476;28;20031;-75
2023/01/08 03:06:32;;;;;;;84.88;42.63;;;;;;;0.98;100.00;100139.00;5058818;28;20122;-74
2023/01/08 03:08:59;;;;;;;89.53;43.70;;;;;;;0.99;100.00;100140.59;5093454;28;20074;-74
2023/01/08 03:11:30;;;;;;;95.90;44.00;;;;;;;1.01;100.00;100151.38;5075500;28;20111;-76
2023/01/08 03:14:03;;;;;;;96.30;44.17;;;;;;;1.03;100.00;100154.56;5042154;28;20031;-75
2023/01/08 03:16:46;;;;;;;84.50;44.03;;;;;;;0.99;100.00;100145.41;5092954;28;20031;-76
2023/01/08 03:19:25;;;;;;;84.95;43.97;;;;;;;1.02;100.00;100150.97;5093281;28;20058;-75
2023/01/08 03:22:06;;;;;;;90.03;44.28;;;;;;;1.03;100.00;100141.31;5093144;28;20032;-75
2023/01/08 03:24:38;;;;;;;84.83;43.03;;;;;;;1.04;100.00;100140.09;5074581;28;20494;-75
2023/01/08 03:27:09;;;;;;;89.97;43.00;;;;;;;1.02;100.00;100139.72;5075450;28;20037;-75
2023/01/08 03:29:35;;;;;;;80.70;42.25;;;;;;;1.03;100.00;100140.50;5075573;28;20024;-75
2023/01/08 03:32:05;;;;;;;77.85;42.08;;;;;;;0.99;100.00;100129.34;5058612;28;20028;-75
2023/01/08 03:34:39;;;;;;;82.70;42.75;;;;;;;0.96;100.00;100135.03;5075628;28;20036;-76
2023/01/08 03:37:08;;;;;;;87.35;42.38;;;;;;;0.95;100.00;100123.00;5075292;28;20119;-73
2023/01/08 03:39:58;;;;;;;83.95;42.58;;;;;;;0.95;100.00;100130.63;5075464;28;20081;-75
2023/01/08 03:42:24;;;;;;;86.50;42.90;;;;;;;0.92;100.00;100125.84;5076626;28;20029;-76
2023/01/08 03:44:50;;;;;;;81.30;42.90;;;;;;;0.93;100.00;100130.25;5058448;28;20055;-75
2023/01/08 03:47:29;;;;;;;87.05;43.63;;;;;;;0.91;100.00;100119.44;5058453;28;20110;-75
2023/01/08 03:49:56;;;;;;;82.68;43.03;;;;;;;0.89;100.00;100112.66;5076085;28;20032;-75
2023/01/08 03:52:24;;;;;;;84.30;43.35;;;;;;;0.88;100.00;100111.06;5058571;28;20032;-75
2023/01/08 03:54:51;;;;;;;91.20;43.72;;;;;;;0.85;100.00;100098.69;5076535;28;20036;-75
2023/01/08 03:57:18;;;;;;;87.85;43.58;;;;;;;0.83;100.00;100089.06;5072648;28;20040;-74
2023/01/08 03:59:44;;;;;;;86.32;43.33;;;;;;;0.80;100.00;100073.88;5076052;28;20059;-75
2023/01/08 04:02:11;;;;;;;84.88;43.67;;;;;;;0.80;100.00;100065.44;5075950;28;20432;-75
2023/01/08 04:04:45;;;;;;;89.30;46.42;;;;;;;0.82;100.00;100070.59;5075423;28;20043;-75
2023/01/08 04:07:12;;;;;;;96.38;46.88;;;;;;;0.80;100.00;100065.44;5074921;28;20481;-75
2023/01/08 04:09:39;;;;;;;88.95;45.88;;;;;;;0.80;100.00;100067.44;5074558;28;20115;-75
2023/01/08 04:12:06;;;;;;;94.28;47.38;;;;;;;0.79;100.00;100075.09;5075891;28;20031;-75
2023/01/08 04:14:32;;;;;;;92.18;48.45;;;;;;;0.80;100.00;100064.63;5075899;28;20056;-75
2023/01/08 04:17:13;;;;;;;93.22;47.13;;;;;;;0.83;100.00;100069.38;5076376;28;20067;-76
2023/01/08 04:19:47;;;;;;;88.65;45.83;;;;;;;0.82;100.00;100067.78;5077698;28;20093;-75
2023/01/08 04:22:13;;;;;;;89.15;44.25;;;;;;;0.81;100.00;100071.84;5075302;28;20112;-75
2023/01/08 04:24:40;;;;;;;87.95;43.90;;;;;;;0.83;100.00;100075.81;5083252;28;20083;-75
2023/01/08 04:27:05;;;;;;;76.10;41.95;;;;;;;0.87;100.00;100065.28;5095725;28;20065;-76
2023/01/08 04:29:39;;;;;;;87.78;44.47;;;;;;;0.89;100.00;100087.34;5077910;28;20031;-75
2023/01/08 04:32:07;;;;;;;86.38;43.75;;;;;;;0.90;100.00;100092.56;5096215;28;20028;-75
2023/01/08 04:34:32;;;;;;;90.65;44.78;;;;;;;0.94;100.00;100084.03;5095066;28;20422;-75
2023/01/08 04:36:59;;;;;;;82.60;42.63;;;;;;;0.95;100.00;100091.25;5095986;28;20024;-75
2023/01/08 04:39:24;;;;;;;89.45;45.47;;;;;;;0.95;100.00;100088.44;5091547;28;20044;-75
2023/01/08 04:41:51;;;;;;;85.60;44.00;;;;;;;0.98;100.00;100082.75;5076214;28;20067;-75
2023/01/08 04:44:17;;;;;;;92.22;43.88;;;;;;;0.97;100.00;100074.72;5095382;28;20038;-75
2023/01/08 04:46:44;;;;;;;85.88;42.50;;;;;;;0.99;100.00;100063.84;5095257;28;20540;-75
2023/01/08 04:49:18;;;;;;;83.75;40.33;;;;;;;1.01;100.00;100056.53;5093242;28;20062;-75
2023/01/08 04:51:45;;;;;;;84.35;43.50;;;;;;;1.05;100.00;100056.50;5095201;28;20028;-76
2023/01/08 04:54:12;;;;;;;81.20;42.58;;;;;;;1.03;100.00;100053.31;5094453;28;20065;-74
2023/01/08 04:56:38;;;;;;;76.97;40.25;;;;;;;1.08;100.00;100063.25;5095366;28;20024;-76
2023/01/08 04:59:04;;;;;;;77.63;39.42;;;;;;;1.11;100.00;100060.34;5095406;28;20028;-76
2023/01/08 05:01:29;;;;;;;77.70;39.78;;;;;;;1.15;100.00;100047.03;5077081;28;20035;-74
2023/01/08 05:03:58;;;;;;;75.95;41.85;;;;;;;1.18;100.00;100046.16;5092724;28;20036;-75
2023/01/08 05:06:25;;;;;;;75.75;39.90;;;;;;;1.21;100.00;100039.63;5095318;28;20024;-75
2023/01/08 05:08:55;;;;;;;70.53;37.78;;;;;;;1.17;100.00;100029.69;5095465;28;20028;-74
2023/01/08 05:11:22;;;;;;;85.90;40.63;;;;;;;1.26;100.00;100032.69;5095216;28;20024;-75
2023/01/08 05:13:50;;;;;;;74.63;37.55;;;;;;;1.28;100.00;100031.06;5060475;28;20063;-76
2023/01/08 05:16:21;;;;;;;72.32;37.13;;;;;;;1.31;100.00;100032.97;5077095;28;20031;-76
2023/01/08 05:18:46;;;;;;;69.55;37.70;;;;;;;1.32;100.00;100037.38;5077109;28;20034;-76
2023/01/08 05:21:24;;;;;;;67.15;37.15;;;;;;;1.33;100.00;100015.66;5092880;28;20111;-76
2023/01/08 05:23:51;;;;;;;69.38;35.22;;;;;;;1.33;100.00;100010.84;5076593;28;20051;-75
2023/01/08 05:26:18;;;;;;;68.28;36.75;;;;;;;1.40;100.00;100016.28;5054792;28;20087;-76
2023/01/08 05:28:45;;;;;;;69.18;34.63;;;;;;;1.43;100.00;100020.25;5052008;28;20041;-76
2023/01/08 05:31:10;;;;;;;57.92;30.85;;;;;;;1.42;100.00;100007.41;5052826;28;20044;-76
2023/01/08 05:33:50;;;;;;;64.93;33.72;;;;;;;1.41;100.00;100009.44;5036698;28;20033;-76
2023/01/08 05:36:17;;;;;;;65.75;33.47;;;;;;;1.41;100.00;100011.44;5054156;28;20025;-76
2023/01/08 05:38:50;;;;;;;67.80;34.28;;;;;;;1.38;100.00;100001.88;5054234;28;20040;-75
2023/01/08 05:41:17;;;;;;;64.38;34.42;;;;;;;1.43;100.00;100012.63;5054577;28;20037;-75
2023/01/08 05:43:44;;;;;;;68.45;34.33;;;;;;;1.44;100.00;100008.56;5053120;28;20024;-77
2023/01/08 05:46:10;;;;;;;67.85;36.08;;;;;;;1.43;100.00;100004.16;5052078;28;20037;-76
2023/01/08 05:48:38;;;;;;;64.65;34.58;;;;;;;1.42;100.00;100007.41;5052775;28;20048;-78
2023/01/08 05:51:04;;;;;;;71.00;35.28;;;;;;;1.39;100.00;100008.28;5054215;28;20020;-77
2023/01/08 05:53:38;;;;;;;72.10;36.17;;;;;;;1.34;100.00;100000.38;5053250;28;20033;-76
2023/01/08 05:56:09;;;;;;;73.65;34.35;;;;;;;1.32;100.00;100006.44;5054082;28;20029;-75
2023/01/08 05:58:39;;;;;;;63.90;34.28;;;;;;;1.32;100.00;100009.25;5037299;28;20033;-77
2023/01/08 06:01:10;;;;;;;66.75;34.83;;;;;;;1.29;100.00;100007.31;5053655;28;20079;-75
2023/01/08 06:03:37;;;;;;;75.57;35.70;;;;;;;1.28;100.00;99997.28;5054583;28;20032;-76
2023/01/08 06:06:05;;;;;;;62.85;33.38;;;;;;;1.26;100.00;99994.09;5055739;28;20462;-76
2023/01/08 06:08:41;;;;;;;62.72;33.78;;;;;;;1.24;100.00;99987.34;5054396;28;20028;-76
2023/01/08 06:11:27;;;;;;;60.15;32.53;;;;;;;1.23;100.00;99988.56;5056789;28;20037;-77
2023/01/08 06:13:53;;;;;;;59.88;30.40;;;;;;;1.22;100.00;99999.03;5053722;28;20032;-77
2023/01/08 06:16:20;;;;;;;64.90;30.63;;;;;;;1.20;100.00;99990.25;5053901;28;20040;-77
2023/01/08 06:18:48;;;;;;;63.55;30.48;;;;;;;1.22;100.00;99986.97;5053753;28;20044;-77
2023/01/08 06:21:14;;;;;;;60.55;30.30;;;;;;;1.19;100.00;99977.41;5054406;28;20418;-77
2023/01/08 06:23:41;;;;;;;62.35;32.95;;;;;;;1.09;100.00;99960.75;5053526;28;20036;-75
2023/01/08 06:26:07;;;;;;;67.22;33.05;;;;;;;1.19;100.00;99983.03;5070472;28;20048;-75
2023/01/08 06:28:39;;;;;;;73.13;35.35;;;;;;;1.08;100.00;99974.03;5073735;28;20028;-76
2023/01/08 06:31:06;;;;;;;70.93;35.42;;;;;;;1.06;100.00;99982.09;5073644;28;20024;-76
2023/01/08 06:33:34;;;;;;;76.07;37.80;;;;;;;1.03;100.00;99978.16;5072593;28;20068;-78
2023/01/08 06:36:04;;;;;;;69.05;36.47;;;;;;;1.00;100.00;99978.25;5073445;28;20333;-79
2023/01/08 06:38:31;;;;;;;69.50;36.90;;;;;;;0.99;100.00;99965.41;5072143;28;20036;-73
2023/01/08 06:40:57;;;;;;;72.47;35.75;;;;;;;0.96;100.00;99958.59;5072552;28;20032;-76
2023/01/08 06:43:24;;;;;;;65.28;33.20;;;;;;;0.99;100.00;99959.78;5068354;28;20396;-74
2023/01/08 06:45:54;;;;;;;65.03;31.50;;;;;;;1.02;100.00;99956.88;5053511;28;20470;-75
2023/01/08 06:48:20;;;;;;;63.47;31.52;;;;;;;1.06;100.00;99948.34;5051909;28;20090;-70
2023/01/08 06:50:47;;;;;;;58.22;31.08;;;;;;;1.13;100.00;99959.44;5053002;28;20508;-72
2023/01/08 06:53:19;;;;;;;59.40;33.38;;;;;;;1.19;100.00;99951.28;5049717;28;20036;-74
2023/01/08 06:55:45;;;;;;;71.32;34.65;;;;;;;1.25;100.00;99952.34;5053043;28;20029;-72
2023/01/08 06:58:11;;;;;;;63.47;34.42;;;;;;;1.23;100.00;99964.03;5055245;28;20098;-74
2023/01/08 07:00:42;;;;;;;67.85;32.80;;;;;;;1.21;100.00;99965.69;5057446;28;20040;-77
2023/01/08 07:03:08;;;;;;;65.32;33.30;;;;;;;1.12;100.00;99968.31;5056121;28;20036;-77
2023/01/08 07:05:34;;;;;;;61.92;32.30;;;;;;;1.20;100.00;99979.00;5053521;28;20036;-76
2023/01/08 07:08:02;;;;;;;66.28;32.65;;;;;;;1.24;100.00;99976.88;5057334;28;20470;-75
2023/01/08 07:10:30;;;;;;;68.30;32.30;;;;;;;1.29;100.00;99978.38;5057190;28;20488;-74
2023/01/08 07:12:56;;;;;;;54.00;27.10;;;;;;;1.35;100.00;99976.63;5055702;28;20045;-74
2023/01/08 07:15:24;;;;;;;54.92;27.35;;;;;;;1.40;100.00;99974.06;5055533;28;20036;-74
2023/01/08 07:17:50;;;;;;;53.28;26.52;;;;;;;1.45;100.00;99967.91;5054631;28;20246;-74
2023/01/08 07:20:17;;;;;;;51.28;26.33;;;;;;;1.54;100.00;99977.78;5056825;28;20431;-74
2023/01/08 07:22:43;;;;;;;48.55;25.50;;;;;;;1.59;100.00;99974.44;5057026;28;20028;-74
2023/01/08 07:25:08;;;;;;;43.85;23.48;;;;;;;1.68;100.00;99980.25;5065002;28;20036;-76
2023/01/08 07:27:35;;;;;;;45.03;24.70;;;;;;;1.77;100.00;99978.41;5075781;28;20040;-76
2023/01/08 07:30:04;;;;;;;42.45;23.33;;;;;;;1.86;100.00;99978.56;5074953;28;20093;-75
2023/01/08 07:32:29;;;;;;;40.05;21.25;;;;;;;1.98;100.00;99970.63;5076514;28;20109;-74
2023/01/08 07:35:00;;;;;;;44.33;23.17;;;;;;;2.05;100.00;99967.63;5074124;28;20428;-74
2023/01/08 07:37:26;;;;;;;34.83;18.23;;;;;;;2.12;100.00;99958.97;5076457;28;20048;-74
2023/01/08 07:39:52;;;;;;;39.75;19.42;;;;;;;2.17;100.00;99959.25;5076874;28;20477;-74
2023/01/08 07:42:19;;;;;;;39.47;20.58;;;;;;;2.25;100.00;99951.38;5071378;28;20052;-75
2023/01/08 07:44:45;;;;;;;37.78;19.60;;;;;;;2.28;100.00;99942.84;5076509;28;20023;-75
2023/01/08 07:47:13;;;;;;;44.17;20.25;;;;;;;2.32;100.00;99951.97;5076156;28;20139;-75
2023/01/08 07:49:39;;;;;;;36.72;18.90;;;;;;;2.41;100.00;99951.31;5076582;28;20496;-77
2023/01/08 07:52:06;;;;;;;36.85;18.85;;;;;;;2.48;100.00;99944.69;5076223;28;20028;-77
2023/01/08 07:54:32;;;;;;;42.97;20.42;;;;;;;2.52;100.00;99940.53;5075542;28;20036;-76
2023/01/08 07:56:58;;;;;;;42.75;21.38;;;;;;;2.52;100.00;99942.56;5076202;28;20059;-78
2023/01/08 07:59:24;;;;;;;35.33;17.92;;;;;;;2.51;100.00;99929.69;5058780;28;20029;-78
2023/01/08 08:01:57;;;;;;;34.22;19.02;;;;;;;2.47;100.00;99937.47;5076021;28;20454;-77
2023/01/08 08:04:25;;;;;;;29.85;18.23;;;;;;;2.49;100.00;99935.00;5076075;28;20028;-78
2023/01/08 08:06:56;;;;;;;34.45;18.45;;;;;;;2.53;100.00;99925.22;5075787;28;20107;-80
2023/01/08 08:09:23;;;;;;;31.00;18.08;;;;;;;2.57;100.00;99919.44;5057550;28;20059;-79
2023/01/08 08:11:49;;;;;;;38.63;18.08;;;;;;;2.61;100.00;99925.78;5075800;28;20385;-78
2023/01/08 08:14:14;;;;;;;33.35;18.38;;;;;;;2.66;100.00;99928.84;5073357;28;20039;-77
2023/01/08 08:16:39;;;;;;;32.03;17.63;;;;;;;2.74;100.00;99918.91;5075314;28;20111;-76
2023/01/08 08:19:07;;;;;;;37.60;17.95;;;;;;;2.81;100.00;99923.56;5076091;28;20101;-78
2023/01/08 08:21:35;;;;;;;35.17;19.42;;;;;;;2.87;100.00;99921.78;5075766;28;20028;-77
2023/01/08 08:24:00;;;;;;;33.95;16.90;;;;;;;2.93;100.00;99916.34;5075924;28;20077;-78
2023/01/08 08:26:25;;;;;;;35.45;17.20;;;;;;;2.97;100.00;99906.53;5075517;28;20044;-78
2023/01/08 08:28:51;;;;;;;33.78;17.65;;;;;;;3.01;100.00;99898.75;5057617;28;20121;-75
2023/01/08 08:31:17;;;;;;;39.65;16.35;;;;;;;3.10;100.00;99903.72;5077100;28;20054;-81
2023/01/08 08:33:45;;;;;;;32.65;16.95;;;;;;;3.18;100.00;99899.44;5078518;28;20040;-84
2023/01/08 08:36:10;;;;;;;35.10;18.05;;;;;;;3.29;100.00;99899.06;5079157;28;20063;-81
2023/01/08 08:38:37;;;;;;;32.85;18.17;;;;;;;3.39;100.00;99895.09;5076237;28;20032;-79
2023/01/08 08:41:03;;;;;;;35.63;18.88;;;;;;;3.45;100.00;99887.66;5041550;28;20044;-77
2023/01/08 08:43:30;;;;;;;33.40;17.13;;;;;;;3.40;100.00;99855.13;5075784;28;20059;-80
2023/01/08 08:45:56;;;;;;;31.08;16.27;;;;;;;3.57;100.00;99876.34;5075663;28;20033;-80
2023/01/08 08:48:22;;;;;;;32.30;17.00;;;;;;;3.63;100.00;99897.09;5052490;28;20033;-79
2023/01/08 08:50:55;;;;;;;31.38;17.00;;;;;;;3.65;100.00;99897.44;5040585;28;20051;-78
2023/01/08 08:53:21;;;;;;;30.98;17.77;;;;;;;3.75;100.00;99889.06;5074944;28;20024;-77
2023/01/08 08:55:50;;;;;;;32.65;18.10;;;;;;;3.85;100.00;99888.69;5056733;28;20055;-76
2023/01/08 08:58:18;;;;;;;30.48;16.88;;;;;;;3.90;100.00;99890.97;5059529;28;20032;-77
2023/01/08 09:01:04;;;;;;;32.15;16.98;;;;;;;4.08;100.00;99893.16;5042065;28;20043;-76
2023/01/08 09:03:30;;;;;;;33.45;16.50;;;;;;;4.22;100.00;99901.09;5056685;28;20107;-77
2023/01/08 09:05:55;;;;;;;34.45;17.73;;;;;;;4.39;100.00;99896.06;5073895;28;20432;-76
2023/01/08 09:08:21;;;;;;;32.65;15.70;;;;;;;4.55;100.00;99903.56;5074828;28;20420;-77
2023/01/08 09:10:47;;;;;;;35.20;17.20;;;;;;;4.69;100.00;99906.63;5074713;28;20048;-76
2023/01/08 09:13:13;;;;;;;30.85;16.63;;;;;;;4.85;100.00;99900.75;5075106;28;20112;-77
2023/01/08 09:15:39;;;;;;;25.95;14.40;;;;;;;4.99;100.00;99896.59;5074137;28;20362;-77
2023/01/08 09:18:05;;;;;;;28.80;14.77;;;;;;;5.15;100.00;99890.69;5075407;28;20482;-76
2023/01/08 09:20:31;;;;;;;22.60;13.80;;;;;;;5.30;100.00;99894.50;5023506;28;20032;-78
2023/01/08 09:23:02;;;;;;;29.10;14.63;;;;;;;5.42;100.00;99895.63;5074420;28;20031;-78
2023/01/08 09:25:28;;;;;;;22.58;12.63;;;;;;;5.54;100.00;99891.13;5036622;28;20140;-77
2023/01/08 09:28:00;;;;;;;25.67;13.60;;;;;;;5.65;100.00;99900.72;5054447;28;20036;-79
2023/01/08 09:30:26;;;;;;;25.13;14.77;;;;;;;5.78;100.00;99906.28;5054919;28;20029;-78
2023/01/08 09:32:56;;;;;;;27.17;13.38;;;;;;;5.88;100.00;99890.84;5056611;28;20032;-78
2023/01/08 09:35:22;;;;;;;25.00;12.40;;;;;;;5.98;100.00;99894.50;5051923;28;20446;-80
2023/01/08 09:37:52;;;;;;;26.70;13.18;;;;;;;6.08;100.00;99898.91;5052835;28;20490;-78
2023/01/08 09:40:19;;;;;;;23.27;12.30;;;;;;;6.23;100.00;99894.97;5052576;28;20041;-77
2023/01/08 09:42:52;;;;;;;22.98;12.93;;;;;;;6.40;100.00;99886.94;5037045;28;20029;-81
2023/01/08 09:45:26;;;;;;;22.80;12.27;;;;;;;6.52;100.00;99886.00;5052977;28;20036;-78
2023/01/08 09:47:57;;;;;;;23.35;12.43;;;;;;;6.64;100.00;99881.38;5053020;28;20028;-78
2023/01/08 09:50:25;;;;;;;23.25;13.55;;;;;;;6.78;100.00;99874.28;5036356;28;20466;-82
2023/01/08 09:52:51;;;;;;;27.23;12.50;;;;;;;6.93;100.00;99864.56;5054262;28;20111;-78
2023/01/08 09:55:19;;;;;;;22.67;12.73;;;;;;;7.04;100.00;99859.19;5052764;28;20112;-77
2023/01/08 09:57:45;;;;;;;27.67;12.68;;;;;;;7.16;100.00;99857.41;5054418;28;20363;-76
2023/01/08 10:00:31;;;;;;;22.30;10.70;;;;;;;7.25;100.00;99853.72;5053430;28;20451;-77
2023/01/08 10:03:17;;;;;;;21.67;11.63;;;;;;;7.39;100.00;99850.97;5052973;28;20048;-75
2023/01/08 10:05:44;;;;;;;22.20;10.68;;;;;;;7.50;100.00;99850.44;5053581;28;20462;-78
2023/01/08 10:08:21;;;;;;;20.85;10.30;;;;;;;7.57;100.00;99838.69;5056559;28;20478;-79
2023/01/08 10:10:54;;;;;;;20.60;11.30;;;;;;;7.68;100.00;99829.59;5074238;28;20028;-80
2023/01/08 10:13:21;;;;;;;20.80;11.35;;;;;;;7.75;100.00;99815.03;5074715;28;20033;-79
2023/01/08 10:15:49;;;;;;;18.13;9.93;;;;;;;7.84;100.00;99821.44;5072310;28;20033;-79
2023/01/08 10:18:17;;;;;;;17.17;10.75;;;;;;;7.87;100.00;99833.88;5067940;28;20040;-79
2023/01/08 10:20:42;;;;;;;18.55;9.85;;;;;;;7.89;100.00;99822.81;5073171;28;20024;-77
2023/01/08 10:23:10;;;;;;;15.25;9.60;;;;;;;7.87;100.00;99816.81;5074379;28;20081;-75
2023/01/08 10:25:57;;;;;;;15.30;8.23;;;;;;;7.81;100.00;99818.78;5072898;28;20449;-79
2023/01/08 10:28:25;;;;;;;15.20;9.35;;;;;;;7.79;100.00;99812.78;5072004;28;20036;-79
2023/01/08 10:30:52;;;;;;;17.15;9.57;;;;;;;7.80;100.00;99812.31;5073352;28;20036;-80
2023/01/08 10:33:30;;;;;;;16.45;8.95;;;;;;;7.92;100.00;99810.47;5072605;28;20032;-79
2023/01/08 10:36:06;;;;;;;17.48;9.50;;;;;;;7.99;100.00;99795.88;5072165;28;20033;-79
2023/01/08 10:38:39;;;;;;;17.80;11.07;;;;;;;8.06;100.00;99804.03;5070980;28;20032;-78
2023/01/08 10:41:09;;;;;;;16.77;9.43;;;;;;;8.07;100.00;99799.09;5071145;28;20103;-78
2023/01/08 10:43:44;;;;;;;15.57;9.43;;;;;;;8.01;100.00;99799.03;5070953;28;20036;-77
2023/01/08 10:46:20;;;;;;;18.85;9.25;;;;;;;7.93;100.00;99789.28;5072555;28;20056;-77
2023/01/08 10:48:54;;;;;;;15.48;9.32;;;;;;;8.01;100.00;99787.63;5072618;28;20090;-77
2023/01/08 10:51:40;;;;;;;19.05;9.48;;;;;;;8.05;100.00;99787.44;5070739;28;20407;-76
2023/01/08 10:54:37;;;;;;;14.20;7.75;;;;;;;8.14;100.00;99790.19;5073052;28;20036;-77
2023/01/08 10:57:19;;;;;;;13.63;8.13;;;;;;;8.05;100.00;99787.44;5064925;28;20070;-77
2023/01/08 10:59:46;;;;;;;16.20;9.23;;;;;;;8.00;100.00;99786.06;5072394;28;20119;-78
2023/01/08 11:02:36;;;;;;;18.65;9.15;;;;;;;8.00;100.00;99777.53;5071980;28;20044;-78
2023/01/08 11:05:03;;;;;;;15.98;8.52;;;;;;;8.00;100.00;99769.00;5072398;28;20036;-78
2023/01/08 11:07:34;;;;;;;15.43;9.10;;;;;;;8.10;100.00;99761.94;5055367;28;20123;-78
2023/01/08 11:09:59;;;;;;;15.40;8.82;;;;;;;8.15;100.00;99761.25;5071901;28;20032;-75
2023/01/08 11:12:40;;;;;;;12.57;8.73;;;;;;;8.16;100.00;99756.38;5055466;28;20055;-76
2023/01/08 11:15:33;;;;;;;12.15;7.75;;;;;;;8.28;100.00;99761.78;5073205;28;20504;-79
2023/01/08 11:18:24;;;;;;;13.70;8.35;;;;;;;8.33;100.00;99755.41;5073214;28;20032;-74
2023/01/08 11:20:51;;;;;;;14.43;8.18;;;;;;;8.39;100.00;99749.81;5054863;28;20450;-74
2023/01/08 11:23:23;;;;;;;14.07;8.90;;;;;;;8.42;100.00;99751.66;5038284;28;20039;-74
2023/01/08 11:26:10;;;;;;;13.02;7.10;;;;;;;8.40;100.00;99748.53;5086137;28;20048;-74
2023/01/08 11:29:04;;;;;;;13.57;7.50;;;;;;;8.36;100.00;99757.25;5075039;28;20024;-72